sensor_id;sensor_type;location;lat;lon;timestamp;pressure;altitude;pressure_sealevel;temperature;humidity
42603;BME280;28233;55.748;48.752;2022-10-30T00:00:51;98049.84;;;2.50;100.00
42603;BME280;28233;55.748;48.752;2022-10-30T00:02:54;98034.19;;;2.47;100.00
42603;BME280;28233;55.748;48.752;2022-10-30T00:04:58;98031.66;;;2.51;100.00
42603;BME280;28233;55.748;48.752;2022-10-30T00:07:00;98035.66;;;2.53;100.00
42603;BME280;28233;55.748;48.752;2022-10-30T00:09:03;98030.25;;;2.53;100.00
42603;BME280;28233;55.748;48.752;2022-10-30T00:11:08;98027.84;;;2.52;100.00
42603;BME280;28233;55.748;48.752;2022-10-30T00:13:12;98024.03;;;2.53;100.00
42603;BME280;28233;55.748;48.752;2022-10-30T00:15:15;98018.31;;;2.54;100.00
42603;BME280;28233;55.748;48.752;2022-10-30T00:17:18;98010.47;;;2.53;100.00
42603;BME280;28233;55.748;48.752;2022-10-30T00:19:20;97999.81;;;2.57;100.00
42603;BME280;28233;55.748;48.752;2022-10-30T00:21:23;98000.91;;;2.56;100.00
42603;BME280;28233;55.748;48.752;2022-10-30T00:23:25;97994.56;;;2.60;100.00
42603;BME280;28233;55.748;48.752;2022-10-30T00:25:28;97989.94;;;2.61;100.00
42603;BME280;28233;55.748;48.752;2022-10-30T00:27:31;97989.78;;;2.57;100.00
42603;BME280;28233;55.748;48.752;2022-10-30T00:29:33;97977.50;;;2.60;100.00
42603;BME280;28233;55.748;48.752;2022-10-30T00:31:36;97970.78;;;2.57;100.00
42603;BME280;28233;55.748;48.752;2022-10-30T00:33:38;97970.66;;;2.62;100.00
42603;BME280;28233;55.748;48.752;2022-10-30T00:35:47;97965.44;;;2.66;100.00
42603;BME280;28233;55.748;48.752;2022-10-30T00:37:50;97956.50;;;2.65;100.00
42603;BME280;28233;55.748;48.752;2022-10-30T00:39:52;97951.88;;;2.66;100.00
42603;BME280;28233;55.748;48.752;2022-10-30T00:41:55;97951.56;;;2.67;100.00
42603;BME280;28233;55.748;48.752;2022-10-30T00:43:57;97940.72;;;2.67;100.00
42603;BME280;28233;55.748;48.752;2022-10-30T00:48:38;97942.34;;;2.68;100.00
42603;BME280;28233;55.748;48.752;2022-10-30T00:50:40;97940.91;;;2.71;100.00
42603;BME280;28233;55.748;48.752;2022-10-30T00:53:09;97934.19;;;2.68;100.00
42603;BME280;28233;55.748;48.752;2022-10-30T00:55:18;97930.84;;;2.71;100.00
42603;BME280;28233;55.748;48.752;2022-10-30T00:57:22;97935.97;;;2.73;100.00
42603;BME280;28233;55.748;48.752;2022-10-30T00:59:29;97924.31;;;2.72;100.00
42603;BME280;28233;55.748;48.752;2022-10-30T01:01:39;97923.81;;;2.70;100.00
42603;BME280;28233;55.748;48.752;2022-10-30T01:03:44;97929.72;;;2.72;100.00
42603;BME280;28233;55.748;48.752;2022-10-30T01:05:51;97919.09;;;2.76;100.00
42603;BME280;28233;55.748;48.752;2022-10-30T01:07:54;97910.16;;;2.75;100.00
42603;BME280;28233;55.748;48.752;2022-10-30T01:09:58;97920.66;;;2.77;100.00
42603;BME280;28233;55.748;48.752;2022-10-30T01:12:01;97917.97;;;2.77;100.00
42603;BME280;28233;55.748;48.752;2022-10-30T01:14:06;97911.13;;;2.80;100.00
42603;BME280;28233;55.748;48.752;2022-10-30T01:18:45;97891.66;;;2.78;100.00
42603;BME280;28233;55.748;48.752;2022-10-30T01:21:01;97900.25;;;2.80;100.00
42603;BME280;28233;55.748;48.752;2022-10-30T01:25:46;97888.00;;;2.82;100.00
42603;BME280;28233;55.748;48.752;2022-10-30T01:28:03;97887.53;;;2.80;100.00
42603;BME280;28233;55.748;48.752;2022-10-30T01:30:19;97881.78;;;2.82;100.00
42603;BME280;28233;55.748;48.752;2022-10-30T01:32:53;97864.56;;;2.86;100.00
42603;BME280;28233;55.748;48.752;2022-10-30T01:35:31;97866.78;;;2.84;100.00
42603;BME280;28233;55.748;48.752;2022-10-30T01:37:41;97851.00;;;2.86;100.00
42603;BME280;28233;55.748;48.752;2022-10-30T01:39:47;97852.63;;;2.87;100.00
42603;BME280;28233;55.748;48.752;2022-10-30T01:41:49;97851.78;;;2.87;100.00
42603;BME280;28233;55.748;48.752;2022-10-30T01:43:56;97854.41;;;2.92;100.00
42603;BME280;28233;55.748;48.752;2022-10-30T01:48:19;97847.53;;;2.94;100.00
42603;BME280;28233;55.748;48.752;2022-10-30T01:50:42;97836.69;;;2.94;100.00
42603;BME280;28233;55.748;48.752;2022-10-30T01:55:34;97829.84;;;2.97;100.00
42603;BME280;28233;55.748;48.752;2022-10-30T02:00:00;97817.25;;;3.01;100.00
42603;BME280;28233;55.748;48.752;2022-10-30T02:02:06;97817.56;;;3.00;100.00
42603;BME280;28233;55.748;48.752;2022-10-30T02:04:10;97811.50;;;3.03;100.00
42603;BME280;28233;55.748;48.752;2022-10-30T02:06:14;97807.69;;;3.04;100.00
42603;BME280;28233;55.748;48.752;2022-10-30T02:08:17;97803.53;;;3.06;100.00
42603;BME280;28233;55.748;48.752;2022-10-30T02:10:20;97800.97;;;3.10;100.00
42603;BME280;28233;55.748;48.752;2022-10-30T02:12:23;97793.19;;;3.08;100.00
42603;BME280;28233;55.748;48.752;2022-10-30T02:14:49;97796.34;;;3.10;100.00
42603;BME280;28233;55.748;48.752;2022-10-30T02:16:56;97781.69;;;3.11;100.00
42603;BME280;28233;55.748;48.752;2022-10-30T02:18:59;97773.25;;;3.13;100.00
42603;BME280;28233;55.748;48.752;2022-10-30T02:21:04;97770.53;;;3.13;100.00
42603;BME280;28233;55.748;48.752;2022-10-30T02:23:07;97758.22;;;3.15;100.00
42603;BME280;28233;55.748;48.752;2022-10-30T02:25:15;97748.31;;;3.11;100.00
42603;BME280;28233;55.748;48.752;2022-10-30T02:27:17;97757.59;;;3.18;100.00
42603;BME280;28233;55.748;48.752;2022-10-30T02:29:20;97752.97;;;3.19;100.00
42603;BME280;28233;55.748;48.752;2022-10-30T02:31:23;97758.09;;;3.21;100.00
42603;BME280;28233;55.748;48.752;2022-10-30T02:33:25;97755.03;;;3.22;100.00
42603;BME280;28233;55.748;48.752;2022-10-30T02:35:29;97739.38;;;3.19;100.00
42603;BME280;28233;55.748;48.752;2022-10-30T02:37:31;97747.72;;;3.23;100.00
42603;BME280;28233;55.748;48.752;2022-10-30T02:39:36;97738.44;;;3.24;100.00
42603;BME280;28233;55.748;48.752;2022-10-30T02:41:39;97735.09;;;3.27;100.00
42603;BME280;28233;55.748;48.752;2022-10-30T02:43:42;97717.22;;;3.26;100.00
42603;BME280;28233;55.748;48.752;2022-10-30T02:45:49;97720.22;;;3.24;100.00
42603;BME280;28233;55.748;48.752;2022-10-30T02:47:53;97716.09;;;3.27;100.00
42603;BME280;28233;55.748;48.752;2022-10-30T02:49:55;97718.00;;;3.26;100.00
42603;BME280;28233;55.748;48.752;2022-10-30T02:51:58;97709.56;;;3.28;100.00
42603;BME280;28233;55.748;48.752;2022-10-30T02:54:01;97703.00;;;3.29;100.00
42603;BME280;28233;55.748;48.752;2022-10-30T02:56:05;97699.00;;;3.26;100.00
42603;BME280;28233;55.748;48.752;2022-10-30T02:58:09;97686.56;;;3.25;100.00
42603;BME280;28233;55.748;48.752;2022-10-30T03:00:12;97680.81;;;3.27;100.00
42603;BME280;28233;55.748;48.752;2022-10-30T03:02:15;97685.59;;;3.30;100.00
42603;BME280;28233;55.748;48.752;2022-10-30T03:04:17;97685.59;;;3.30;100.00
42603;BME280;28233;55.748;48.752;2022-10-30T03:06:20;97679.38;;;3.29;100.00
42603;BME280;28233;55.748;48.752;2022-10-30T03:08:23;97671.25;;;3.29;100.00
42603;BME280;28233;55.748;48.752;2022-10-30T03:10:25;97659.75;;;3.32;100.00
42603;BME280;28233;55.748;48.752;2022-10-30T03:12:28;97664.53;;;3.35;100.00
42603;BME280;28233;55.748;48.752;2022-10-30T03:14:31;97658.78;;;3.37;100.00
42603;BME280;28233;55.748;48.752;2022-10-30T03:16:35;97658.44;;;3.38;100.00
42603;BME280;28233;55.748;48.752;2022-10-30T03:18:38;97653.00;;;3.38;100.00
42603;BME280;28233;55.748;48.752;2022-10-30T03:20:41;97652.56;;;3.36;100.00
42603;BME280;28233;55.748;48.752;2022-10-30T03:22:44;97642.50;;;3.37;100.00
42603;BME280;28233;55.748;48.752;2022-10-30T03:24:46;97632.75;;;3.36;100.00
42603;BME280;28233;55.748;48.752;2022-10-30T03:26:49;97634.34;;;3.37;100.00
42603;BME280;28233;55.748;48.752;2022-10-30T03:28:52;97636.28;;;3.36;100.00
42603;BME280;28233;55.748;48.752;2022-10-30T03:31:02;97632.44;;;3.37;100.00
42603;BME280;28233;55.748;48.752;2022-10-30T03:33:05;97618.53;;;3.39;100.00
42603;BME280;28233;55.748;48.752;2022-10-30T03:35:08;97625.88;;;3.38;100.00
42603;BME280;28233;55.748;48.752;2022-10-30T03:37:10;97621.09;;;3.35;100.00
42603;BME280;28233;55.748;48.752;2022-10-30T03:39:13;97615.00;;;3.38;100.00
42603;BME280;28233;55.748;48.752;2022-10-30T03:41:15;97619.16;;;3.36;100.00
42603;BME280;28233;55.748;48.752;2022-10-30T03:43:18;97618.53;;;3.39;100.00
42603;BME280;28233;55.748;48.752;2022-10-30T03:45:21;97619.34;;;3.39;100.00
42603;BME280;28233;55.748;48.752;2022-10-30T03:47:23;97609.13;;;3.36;100.00
42603;BME280;28233;55.748;48.752;2022-10-30T03:49:26;97616.63;;;3.39;100.00
42603;BME280;28233;55.748;48.752;2022-10-30T03:51:28;97612.78;;;3.41;100.00
42603;BME280;28233;55.748;48.752;2022-10-30T03:53:31;97604.63;;;3.41;100.00
42603;BME280;28233;55.748;48.752;2022-10-30T03:55:33;97601.59;;;3.42;100.00
42603;BME280;28233;55.748;48.752;2022-10-30T03:57:36;97595.69;;;3.40;100.00
42603;BME280;28233;55.748;48.752;2022-10-30T03:59:40;97588.81;;;3.43;100.00
42603;BME280;28233;55.748;48.752;2022-10-30T04:01:42;97581.47;;;3.43;100.00
42603;BME280;28233;55.748;48.752;2022-10-30T04:03:45;97576.03;;;3.43;100.00
42603;BME280;28233;55.748;48.752;2022-10-30T04:05:49;97577.97;;;3.43;100.00
42603;BME280;28233;55.748;48.752;2022-10-30T04:07:55;97569.03;;;3.42;100.00
42603;BME280;28233;55.748;48.752;2022-10-30T04:09:58;97558.16;;;3.42;100.00
42603;BME280;28233;55.748;48.752;2022-10-30T04:12:01;97560.56;;;3.44;100.00
42603;BME280;28233;55.748;48.752;2022-10-30T04:14:03;97561.03;;;3.46;100.00
42603;BME280;28233;55.748;48.752;2022-10-30T04:16:06;97547.44;;;3.46;100.00
42603;BME280;28233;55.748;48.752;2022-10-30T04:18:12;97543.63;;;3.47;100.00
42603;BME280;28233;55.748;48.752;2022-10-30T04:20:15;97532.75;;;3.47;100.00
42603;BME280;28233;55.748;48.752;2022-10-30T04:22:18;97532.44;;;3.48;100.00
42603;BME280;28233;55.748;48.752;2022-10-30T04:24:21;97520.47;;;3.49;100.00
42603;BME280;28233;55.748;48.752;2022-10-30T04:26:23;97528.28;;;3.51;100.00
42603;BME280;28233;55.748;48.752;2022-10-30T04:28:26;97516.28;;;3.52;100.00
42603;BME280;28233;55.748;48.752;2022-10-30T04:30:29;97518.53;;;3.50;100.00
42603;BME280;28233;55.748;48.752;2022-10-30T04:32:44;97522.03;;;3.59;100.00
42603;BME280;28233;55.748;48.752;2022-10-30T04:34:46;97510.69;;;3.57;100.00
42603;BME280;28233;55.748;48.752;2022-10-30T04:36:49;97506.88;;;3.58;100.00
42603;BME280;28233;55.748;48.752;2022-10-30T04:38:52;97501.91;;;3.60;100.00
42603;BME280;28233;55.748;48.752;2022-10-30T04:40:54;97488.47;;;3.64;100.00
42603;BME280;28233;55.748;48.752;2022-10-30T04:42:57;97493.41;;;3.62;100.00
42603;BME280;28233;55.748;48.752;2022-10-30T04:45:00;97485.28;;;3.62;100.00
42603;BME280;28233;55.748;48.752;2022-10-30T04:47:06;97494.19;;;3.62;100.00
42603;BME280;28233;55.748;48.752;2022-10-30T04:49:08;97475.84;;;3.59;100.00
42603;BME280;28233;55.748;48.752;2022-10-30T04:51:11;97487.00;;;3.66;100.00
42603;BME280;28233;55.748;48.752;2022-10-30T04:53:17;97480.94;;;3.69;100.00
42603;BME280;28233;55.748;48.752;2022-10-30T04:55:20;97479.50;;;3.72;100.00
42603;BME280;28233;55.748;48.752;2022-10-30T04:57:23;97482.38;;;3.67;100.00
42603;BME280;28233;55.748;48.752;2022-10-30T04:59:26;97480.94;;;3.69;100.00
42603;BME280;28233;55.748;48.752;2022-10-30T05:01:29;97472.31;;;3.67;100.00
42603;BME280;28233;55.748;48.752;2022-10-30T05:03:32;97466.53;;;3.69;100.00
42603;BME280;28233;55.748;48.752;2022-10-30T05:05:35;97464.19;;;3.67;100.00
42603;BME280;28233;55.748;48.752;2022-10-30T05:07:37;97464.66;;;3.69;100.00
42603;BME280;28233;55.748;48.752;2022-10-30T05:09:40;97467.69;;;3.68;100.00
42603;BME280;28233;55.748;48.752;2022-10-30T05:11:43;97454.88;;;3.68;100.00
42603;BME280;28233;55.748;48.752;2022-10-30T05:13:45;97461.94;;;3.69;100.00
42603;BME280;28233;55.748;48.752;2022-10-30T05:15:48;97456.50;;;3.69;100.00
42603;BME280;28233;55.748;48.752;2022-10-30T05:17:52;97448.00;;;3.71;100.00
42603;BME280;28233;55.748;48.752;2022-10-30T05:19:55;97442.91;;;3.69;100.00
42603;BME280;28233;55.748;48.752;2022-10-30T05:21:58;97432.84;;;3.70;100.00
42603;BME280;28233;55.748;48.752;2022-10-30T05:24:00;97444.97;;;3.72;100.00
42603;BME280;28233;55.748;48.752;2022-10-30T05:26:03;97427.53;;;3.73;100.00
42603;BME280;28233;55.748;48.752;2022-10-30T05:28:06;97432.19;;;3.73;100.00
42603;BME280;28233;55.748;48.752;2022-10-30T05:30:09;97429.16;;;3.74;100.00
42603;BME280;28233;55.748;48.752;2022-10-30T05:32:12;97447.81;;;3.76;100.00
42603;BME280;28233;55.748;48.752;2022-10-30T05:34:15;97428.47;;;3.77;100.00
42603;BME280;28233;55.748;48.752;2022-10-30T05:36:18;97416.03;;;3.76;100.00
42603;BME280;28233;55.748;48.752;2022-10-30T05:38:21;97430.72;;;3.75;100.00
42603;BME280;28233;55.748;48.752;2022-10-30T05:40:24;97428.47;;;3.77;100.00
42603;BME280;28233;55.748;48.752;2022-10-30T05:42:26;97417.16;;;3.75;100.00
42603;BME280;28233;55.748;48.752;2022-10-30T05:44:29;97412.84;;;3.74;100.00
42603;BME280;28233;55.748;48.752;2022-10-30T05:46:51;97389.97;;;3.75;100.00
42603;BME280;28233;55.748;48.752;2022-10-30T05:48:54;97405.97;;;3.77;100.00
42603;BME280;28233;55.748;48.752;2022-10-30T05:50:57;97401.31;;;3.77;100.00
42603;BME280;28233;55.748;48.752;2022-10-30T05:53:01;97398.59;;;3.77;100.00
42603;BME280;28233;55.748;48.752;2022-10-30T05:55:05;97398.59;;;3.77;100.00
42603;BME280;28233;55.748;48.752;2022-10-30T05:57:07;97405.63;;;3.78;100.00
42603;BME280;28233;55.748;48.752;2022-10-30T05:59:10;97386.59;;;3.78;100.00
42603;BME280;28233;55.748;48.752;2022-10-30T06:01:13;97379.59;;;3.77;100.00
42603;BME280;28233;55.748;48.752;2022-10-30T06:03:16;97388.69;;;3.81;100.00
42603;BME280;28233;55.748;48.752;2022-10-30T06:05:19;97372.84;;;3.84;100.00
42603;BME280;28233;55.748;48.752;2022-10-30T06:07:22;97382.25;;;3.86;100.00
42603;BME280;28233;55.748;48.752;2022-10-30T06:09:25;97380.81;;;3.89;100.00
42603;BME280;28233;55.748;48.752;2022-10-30T06:11:27;97367.22;;;3.89;100.00
42603;BME280;28233;55.748;48.752;2022-10-30T06:13:30;97352.84;;;3.88;100.00
42603;BME280;28233;55.748;48.752;2022-10-30T06:15:32;97360.31;;;3.91;100.00
42603;BME280;28233;55.748;48.752;2022-10-30T06:17:35;97356.00;;;3.90;100.00
42603;BME280;28233;55.748;48.752;2022-10-30T06:19:38;97344.34;;;3.90;100.00
42603;BME280;28233;55.748;48.752;2022-10-30T06:21:41;97334.72;;;3.92;100.00
42603;BME280;28233;55.748;48.752;2022-10-30T06:23:43;97334.28;;;3.90;100.00
42603;BME280;28233;55.748;48.752;2022-10-30T06:25:46;97328.97;;;3.94;100.00
42603;BME280;28233;55.748;48.752;2022-10-30T06:27:49;97329.66;;;3.91;100.00
42603;BME280;28233;55.748;48.752;2022-10-30T06:29:52;97328.19;;;3.93;100.00
42603;BME280;28233;55.748;48.752;2022-10-30T06:31:56;97308.81;;;3.95;100.00
42603;BME280;28233;55.748;48.752;2022-10-30T06:34:03;97299.34;;;4.01;100.00
42603;BME280;28233;55.748;48.752;2022-10-30T06:36:06;97288.94;;;4.03;100.00
42603;BME280;28233;55.748;48.752;2022-10-30T06:38:09;97292.91;;;4.06;100.00
42603;BME280;28233;55.748;48.752;2022-10-30T06:40:14;97300.06;;;4.10;100.00
42603;BME280;28233;55.748;48.752;2022-10-30T06:42:17;97295.44;;;4.11;100.00
42603;BME280;28233;55.748;48.752;2022-10-30T06:44:19;97300.06;;;4.10;100.00
42603;BME280;28233;55.748;48.752;2022-10-30T06:46:22;97292.72;;;4.11;100.00
42603;BME280;28233;55.748;48.752;2022-10-30T06:48:31;97290.00;;;4.11;100.00
42603;BME280;28233;55.748;48.752;2022-10-30T06:50:34;97279.91;;;4.11;100.00
42603;BME280;28233;55.748;48.752;2022-10-30T06:52:37;97277.00;;;4.16;100.00
42603;BME280;28233;55.748;48.752;2022-10-30T06:54:40;97275.41;;;4.15;100.00
42603;BME280;28233;55.748;48.752;2022-10-30T06:56:42;97257.97;;;4.16;100.00
42603;BME280;28233;55.748;48.752;2022-10-30T06:58:45;97258.41;;;4.18;100.00
42603;BME280;28233;55.748;48.752;2022-10-30T07:00:48;97255.69;;;4.18;100.00
42603;BME280;28233;55.748;48.752;2022-10-30T07:02:58;97258.41;;;4.18;100.00
42603;BME280;28233;55.748;48.752;2022-10-30T07:05:02;97254.13;;;4.17;100.00
42603;BME280;28233;55.748;48.752;2022-10-30T07:07:05;97242.09;;;4.18;100.00
42603;BME280;28233;55.748;48.752;2022-10-30T07:09:08;97241.31;;;4.18;100.00
42603;BME280;28233;55.748;48.752;2022-10-30T07:11:10;97236.88;;;4.13;100.00
42603;BME280;28233;55.748;48.752;2022-10-30T07:13:13;97238.97;;;4.16;100.00
42603;BME280;28233;55.748;48.752;2022-10-30T07:15:16;97228.75;;;4.13;100.00
42603;BME280;28233;55.748;48.752;2022-10-30T07:17:18;97218.66;;;4.14;100.00
42603;BME280;28233;55.748;48.752;2022-10-30T07:19:22;97229.19;;;4.15;100.00
42603;BME280;28233;55.748;48.752;2022-10-30T07:21:25;97231.13;;;4.15;100.00
42603;BME280;28233;55.748;48.752;2022-10-30T07:23:28;97214.59;;;4.20;100.00
42603;BME280;28233;55.748;48.752;2022-10-30T07:25:30;97211.88;;;4.20;100.00
42603;BME280;28233;55.748;48.752;2022-10-30T07:27:41;97212.44;;;4.13;100.00
42603;BME280;28233;55.748;48.752;2022-10-30T07:29:44;97205.06;;;4.14;100.00
42603;BME280;28233;55.748;48.752;2022-10-30T07:31:47;97194.56;;;4.12;100.00
42603;BME280;28233;55.748;48.752;2022-10-30T07:34:03;97196.91;;;4.14;100.00
42603;BME280;28233;55.748;48.752;2022-10-30T07:36:07;97191.84;;;4.12;100.00
42603;BME280;28233;55.748;48.752;2022-10-30T07:38:11;97178.72;;;4.14;100.00
42603;BME280;28233;55.748;48.752;2022-10-30T07:40:15;97190.94;;;4.20;100.00
42603;BME280;28233;55.748;48.752;2022-10-30T07:42:18;97173.72;;;4.16;100.00
42603;BME280;28233;55.748;48.752;2022-10-30T07:44:20;97188.56;;;4.19;100.00
42603;BME280;28233;55.748;48.752;2022-10-30T07:46:23;97185.84;;;4.19;100.00
42603;BME280;28233;55.748;48.752;2022-10-30T07:48:26;97184.25;;;4.18;100.00
42603;BME280;28233;55.748;48.752;2022-10-30T07:50:28;97170.09;;;4.24;100.00
42603;BME280;28233;55.748;48.752;2022-10-30T07:52:31;97160.56;;;4.18;100.00
42603;BME280;28233;55.748;48.752;2022-10-30T07:54:34;97174.63;;;4.20;100.00
42603;BME280;28233;55.748;48.752;2022-10-30T07:56:37;97160.38;;;4.23;100.00
42603;BME280;28233;55.748;48.752;2022-10-30T07:58:40;97163.19;;;4.27;100.00
42603;BME280;28233;55.748;48.752;2022-10-30T08:00:47;97162.41;;;4.27;100.00
42603;BME280;28233;55.748;48.752;2022-10-30T08:02:51;97149.28;;;4.29;100.00
42603;BME280;28233;55.748;48.752;2022-10-30T08:04:58;97152.78;;;4.29;100.00
42603;BME280;28233;55.748;48.752;2022-10-30T08:07:00;97152.91;;;4.33;100.00
42603;BME280;28233;55.748;48.752;2022-10-30T08:09:03;97142.69;;;4.30;100.00
42603;BME280;28233;55.748;48.752;2022-10-30T08:11:05;97143.94;;;4.32;100.00
42603;BME280;28233;55.748;48.752;2022-10-30T08:13:08;97139.75;;;4.35;100.00
42603;BME280;28233;55.748;48.752;2022-10-30T08:15:11;97133.06;;;4.32;100.00
42603;BME280;28233;55.748;48.752;2022-10-30T08:17:14;97138.97;;;4.34;100.00
42603;BME280;28233;55.748;48.752;2022-10-30T08:19:16;97129.78;;;4.39;100.00
42603;BME280;28233;55.748;48.752;2022-10-30T08:21:19;97122.78;;;4.38;100.00
42603;BME280;28233;55.748;48.752;2022-10-30T08:23:22;97113.47;;;4.39;100.00
42603;BME280;28233;55.748;48.752;2022-10-30T08:25:27;97119.69;;;4.39;100.00
42603;BME280;28233;55.748;48.752;2022-10-30T08:27:30;97108.84;;;4.39;100.00
42603;BME280;28233;55.748;48.752;2022-10-30T08:29:32;97106.81;;;4.36;100.00
42603;BME280;28233;55.748;48.752;2022-10-30T08:31:38;97095.94;;;4.36;100.00
42603;BME280;28233;55.748;48.752;2022-10-30T08:33:40;97089.00;;;4.39;100.00
42603;BME280;28233;55.748;48.752;2022-10-30T08:35:51;97100.00;;;4.42;100.00
42603;BME280;28233;55.748;48.752;2022-10-30T08:37:57;97086.88;;;4.44;100.00
42603;BME280;28233;55.748;48.752;2022-10-30T08:40:19;97089.13;;;4.42;100.00
42603;BME280;28233;55.748;48.752;2022-10-30T08:42:22;97089.13;;;4.42;100.00
42603;BME280;28233;55.748;48.752;2022-10-30T08:47:05;97076.00;;;4.44;100.00
42603;BME280;28233;55.748;48.752;2022-10-30T08:49:08;97073.38;;;4.48;100.00
42603;BME280;28233;55.748;48.752;2022-10-30T08:53:50;97062.94;;;4.50;100.00
42603;BME280;28233;55.748;48.752;2022-10-30T08:55:53;97060.47;;;4.45;100.00
42603;BME280;28233;55.748;48.752;2022-10-30T08:58:14;97049.59;;;4.45;100.00
42603;BME280;28233;55.748;48.752;2022-10-30T09:05:26;97034.63;;;4.51;100.00
42603;BME280;28233;55.748;48.752;2022-10-30T09:09:51;97019.56;;;4.41;100.00
42603;BME280;28233;55.748;48.752;2022-10-30T09:12:12;97031.91;;;4.51;100.00
42603;BME280;28233;55.748;48.752;2022-10-30T09:14:15;97022.16;;;4.50;100.00
42603;BME280;28233;55.748;48.752;2022-10-30T09:16:36;97016.41;;;4.52;100.00
42603;BME280;28233;55.748;48.752;2022-10-30T09:18:40;97012.84;;;4.51;100.00
42603;BME280;28233;55.748;48.752;2022-10-30T09:20:42;97007.78;;;4.50;100.00
42603;BME280;28233;55.748;48.752;2022-10-30T09:23:07;97009.34;;;4.51;100.00
42603;BME280;28233;55.748;48.752;2022-10-30T09:25:10;96994.97;;;4.50;100.00
42603;BME280;28233;55.748;48.752;2022-10-30T09:27:13;96990.78;;;4.53;100.00
42603;BME280;28233;55.748;48.752;2022-10-30T09:29:16;96981.47;;;4.54;100.00
42603;BME280;28233;55.748;48.752;2022-10-30T09:31:19;96985.66;;;4.51;100.00
42603;BME280;28233;55.748;48.752;2022-10-30T09:33:22;96972.06;;;4.51;100.00
42603;BME280;28233;55.748;48.752;2022-10-30T09:35:25;96977.19;;;4.53;100.00
42603;BME280;28233;55.748;48.752;2022-10-30T09:37:28;96969.00;;;4.53;100.00
42603;BME280;28233;55.748;48.752;2022-10-30T09:39:35;96964.03;;;4.55;100.00
42603;BME280;28233;55.748;48.752;2022-10-30T09:56:52;96937.97;;;4.54;100.00
42603;BME280;28233;55.748;48.752;2022-10-30T09:59:27;96928.75;;;4.58;100.00
42603;BME280;28233;55.748;48.752;2022-10-30T10:04:41;96928.69;;;4.55;100.00
42603;BME280;28233;55.748;48.752;2022-10-30T10:06:49;96916.31;;;4.57;100.00
42603;BME280;28233;55.748;48.752;2022-10-30T10:09:00;96920.97;;;4.57;100.00
42603;BME280;28233;55.748;48.752;2022-10-30T10:11:52;96919.81;;;4.58;100.00
42603;BME280;28233;55.748;48.752;2022-10-30T10:13:40;96902.72;;;4.57;100.00
42603;BME280;28233;55.748;48.752;2022-10-30T10:15:50;96905.97;;;4.63;100.00
42603;BME280;28233;55.748;48.752;2022-10-30T10:17:57;96894.75;;;4.64;100.00
42603;BME280;28233;55.748;48.752;2022-10-30T10:20:03;96898.25;;;4.65;100.00
42603;BME280;28233;55.748;48.752;2022-10-30T10:22:21;96885.44;;;4.65;100.00
42603;BME280;28233;55.748;48.752;2022-10-30T10:24:41;96880.72;;;4.62;100.00
42603;BME280;28233;55.748;48.752;2022-10-30T10:26:49;96890.47;;;4.63;100.00
42603;BME280;28233;55.748;48.752;2022-10-30T10:41:08;96858.69;;;4.68;100.00
42603;BME280;28233;55.748;48.752;2022-10-30T10:46:33;96853.69;;;4.70;100.00
42603;BME280;28233;55.748;48.752;2022-10-30T10:53:29;96856.88;;;4.72;100.00
42603;BME280;28233;55.748;48.752;2022-10-30T10:55:37;96844.41;;;4.71;100.00
42603;BME280;28233;55.748;48.752;2022-10-30T10:57:41;96838.16;;;4.70;100.00
42603;BME280;28233;55.748;48.752;2022-10-30T10:59:47;96833.97;;;4.73;100.00
42603;BME280;28233;55.748;48.752;2022-10-30T11:02:32;96833.16;;;4.72;100.00
42603;BME280;28233;55.748;48.752;2022-10-30T11:04:40;96831.69;;;4.75;100.00
42603;BME280;28233;55.748;48.752;2022-10-30T11:06:50;96824.56;;;4.70;100.00
42603;BME280;28233;55.748;48.752;2022-10-30T11:09:11;96821.44;;;4.68;100.00
42603;BME280;28233;55.748;48.752;2022-10-30T11:11:14;96820.38;;;4.73;100.00
42603;BME280;28233;55.748;48.752;2022-10-30T11:13:18;96814.56;;;4.74;100.00
42603;BME280;28233;55.748;48.752;2022-10-30T11:17:59;96801.09;;;4.78;100.00
42603;BME280;28233;55.748;48.752;2022-10-30T11:20:16;96802.66;;;4.79;100.00
42603;BME280;28233;55.748;48.752;2022-10-30T11:22:24;96787.47;;;4.78;100.00
42603;BME280;28233;55.748;48.752;2022-10-30T11:24:34;96789.84;;;4.79;100.00
42603;BME280;28233;55.748;48.752;2022-10-30T11:26:37;96786.78;;;4.81;100.00
42603;BME280;28233;55.748;48.752;2022-10-30T11:33:37;96783.06;;;4.89;100.00
42603;BME280;28233;55.748;48.752;2022-10-30T11:36:07;96785.00;;;4.88;100.00
42603;BME280;28233;55.748;48.752;2022-10-30T11:38:29;96772.63;;;4.91;100.00
42603;BME280;28233;55.748;48.752;2022-10-30T11:40:32;96768.00;;;4.92;100.00
42603;BME280;28233;55.748;48.752;2022-10-30T11:42:42;96770.72;;;4.92;100.00
42603;BME280;28233;55.748;48.752;2022-10-30T11:44:50;96759.91;;;4.95;100.00
42603;BME280;28233;55.748;48.752;2022-10-30T11:46:53;96754.03;;;4.93;100.00
42603;BME280;28233;55.748;48.752;2022-10-30T11:48:56;96754.75;;;4.90;100.00
42603;BME280;28233;55.748;48.752;2022-10-30T11:51:33;96749.38;;;4.94;100.00
42603;BME280;28233;55.748;48.752;2022-10-30T11:53:40;96747.69;;;4.89;100.00
42603;BME280;28233;55.748;48.752;2022-10-30T11:56:14;96742.03;;;4.94;100.00
42603;BME280;28233;55.748;48.752;2022-10-30T11:58:37;96752.91;;;4.94;100.00
42603;BME280;28233;55.748;48.752;2022-10-30T12:01:11;96742.69;;;4.91;100.00
42603;BME280;28233;55.748;48.752;2022-10-30T12:03:27;96753.69;;;4.95;100.00
42603;BME280;28233;55.748;48.752;2022-10-30T12:05:49;96750.25;;;4.98;100.00
42603;BME280;28233;55.748;48.752;2022-10-30T12:08:14;96751.47;;;5.00;100.00
42603;BME280;28233;55.748;48.752;2022-10-30T12:13:17;96741.56;;;5.08;100.00
42603;BME280;28233;55.748;48.752;2022-10-30T12:15:25;96720.56;;;5.08;100.00